sensor_id;sensor_type;location;lat;lon;timestamp;P1;durP1;ratioP1;P2;durP2;ratioP2
56667;SDS011;42542;48.360;10.958;2023-02-18T00:01:49;5.07;;;1.65;;
56667;SDS011;42542;48.360;10.958;2023-02-18T00:04:53;5.30;;;1.70;;
56667;SDS011;42542;48.360;10.958;2023-02-18T00:07:55;5.00;;;1.50;;
56667;SDS011;42542;48.360;10.958;2023-02-18T00:10:56;5.53;;;1.63;;
56667;SDS011;42542;48.360;10.958;2023-02-18T00:14:00;6.80;;;1.60;;
56667;SDS011;42542;48.360;10.958;2023-02-18T00:17:02;6.27;;;1.70;;
56667;SDS011;42542;48.360;10.958;2023-02-18T00:20:04;5.00;;;1.60;;
56667;SDS011;42542;48.360;10.958;2023-02-18T00:23:07;5.00;;;1.50;;
56667;SDS011;42542;48.360;10.958;2023-02-18T00:26:13;5.63;;;1.63;;
56667;SDS011;42542;48.360;10.958;2023-02-18T00:29:16;4.68;;;1.50;;
56667;SDS011;42542;48.360;10.958;2023-02-18T00:32:18;5.68;;;1.50;;
56667;SDS011;42542;48.360;10.958;2023-02-18T00:35:20;5.20;;;1.50;;
56667;SDS011;42542;48.360;10.958;2023-02-18T00:38:22;5.67;;;1.47;;
56667;SDS011;42542;48.360;10.958;2023-02-18T00:41:24;6.03;;;1.55;;
56667;SDS011;42542;48.360;10.958;2023-02-18T00:44:27;5.13;;;1.40;;
56667;SDS011;42542;48.360;10.958;2023-02-18T00:47:30;5.30;;;1.40;;
56667;SDS011;42542;48.360;10.958;2023-02-18T00:50:33;6.20;;;1.40;;
56667;SDS011;42542;48.360;10.958;2023-02-18T00:53:35;5.78;;;1.63;;
56667;SDS011;42542;48.360;10.958;2023-02-18T00:56:38;5.50;;;1.50;;
56667;SDS011;42542;48.360;10.958;2023-02-18T00:59:39;4.87;;;1.50;;
56667;SDS011;42542;48.360;10.958;2023-02-18T01:02:41;4.43;;;1.33;;
56667;SDS011;42542;48.360;10.958;2023-02-18T01:05:43;5.80;;;1.70;;
56667;SDS011;42542;48.360;10.958;2023-02-18T01:08:45;5.15;;;1.70;;
56667;SDS011;42542;48.360;10.958;2023-02-18T01:11:46;5.53;;;1.70;;
56667;SDS011;42542;48.360;10.958;2023-02-18T01:14:48;5.97;;;1.77;;
56667;SDS011;42542;48.360;10.958;2023-02-18T01:17:50;6.05;;;1.90;;
56667;SDS011;42542;48.360;10.958;2023-02-18T01:20:52;5.33;;;1.70;;
56667;SDS011;42542;48.360;10.958;2023-02-18T01:23:53;6.45;;;1.70;;
56667;SDS011;42542;48.360;10.958;2023-02-18T01:26:55;5.43;;;1.67;;
56667;SDS011;42542;48.360;10.958;2023-02-18T01:29:57;5.78;;;1.80;;
56667;SDS011;42542;48.360;10.958;2023-02-18T01:32:58;6.43;;;1.88;;
56667;SDS011;42542;48.360;10.958;2023-02-18T01:36:00;5.65;;;1.80;;
56667;SDS011;42542;48.360;10.958;2023-02-18T01:39:03;5.05;;;1.65;;
56667;SDS011;42542;48.360;10.958;2023-02-18T01:42:05;5.90;;;1.43;;
56667;SDS011;42542;48.360;10.958;2023-02-18T01:51:38;6.57;;;1.70;;
56667;SDS011;42542;48.360;10.958;2023-02-18T01:54:44;5.05;;;1.60;;
56667;SDS011;42542;48.360;10.958;2023-02-18T01:57:49;5.10;;;1.40;;
56667;SDS011;42542;48.360;10.958;2023-02-18T02:00:51;5.32;;;1.60;;
56667;SDS011;42542;48.360;10.958;2023-02-18T02:03:53;4.90;;;1.60;;
56667;SDS011;42542;48.360;10.958;2023-02-18T02:06:55;5.65;;;1.40;;
56667;SDS011;42542;48.360;10.958;2023-02-18T02:09:56;5.72;;;1.50;;
56667;SDS011;42542;48.360;10.958;2023-02-18T02:23:03;6.53;;;1.90;;
56667;SDS011;42542;48.360;10.958;2023-02-18T02:29:26;5.15;;;1.55;;
56667;SDS011;42542;48.360;10.958;2023-02-18T02:36:55;4.68;;;1.50;;
56667;SDS011;42542;48.360;10.958;2023-02-18T02:46:37;4.70;;;1.50;;
56667;SDS011;42542;48.360;10.958;2023-02-18T02:53:16;4.93;;;1.50;;
56667;SDS011;42542;48.360;10.958;2023-02-18T02:56:23;5.22;;;1.70;;
56667;SDS011;42542;48.360;10.958;2023-02-18T02:59:27;5.75;;;1.60;;
56667;SDS011;42542;48.360;10.958;2023-02-18T03:16:48;6.18;;;1.92;;
56667;SDS011;42542;48.360;10.958;2023-02-18T03:20:03;6.73;;;1.90;;
56667;SDS011;42542;48.360;10.958;2023-02-18T03:23:26;6.28;;;1.80;;
56667;SDS011;42542;48.360;10.958;2023-02-18T03:26:33;5.72;;;1.77;;
56667;SDS011;42542;48.360;10.958;2023-02-18T03:29:39;4.75;;;1.60;;
56667;SDS011;42542;48.360;10.958;2023-02-18T03:32:44;5.10;;;1.63;;
56667;SDS011;42542;48.360;10.958;2023-02-18T03:35:50;4.82;;;1.65;;
56667;SDS011;42542;48.360;10.958;2023-02-18T03:38:55;4.63;;;1.50;;
56667;SDS011;42542;48.360;10.958;2023-02-18T03:42:02;4.90;;;1.50;;
56667;SDS011;42542;48.360;10.958;2023-02-18T03:45:04;4.60;;;1.48;;
56667;SDS011;42542;48.360;10.958;2023-02-18T03:48:07;5.00;;;1.67;;
56667;SDS011;42542;48.360;10.958;2023-02-18T03:51:09;4.93;;;1.60;;
56667;SDS011;42542;48.360;10.958;2023-02-18T03:54:12;5.20;;;1.60;;
56667;SDS011;42542;48.360;10.958;2023-02-18T03:57:17;5.20;;;1.48;;
56667;SDS011;42542;48.360;10.958;2023-02-18T04:00:18;5.40;;;1.60;;
56667;SDS011;42542;48.360;10.958;2023-02-18T04:03:21;4.80;;;1.55;;
56667;SDS011;42542;48.360;10.958;2023-02-18T04:06:23;4.50;;;1.60;;
56667;SDS011;42542;48.360;10.958;2023-02-18T04:09:26;5.47;;;1.63;;
56667;SDS011;42542;48.360;10.958;2023-02-18T04:12:27;5.23;;;1.50;;
56667;SDS011;42542;48.360;10.958;2023-02-18T04:15:30;5.88;;;1.40;;
56667;SDS011;42542;48.360;10.958;2023-02-18T04:18:33;5.20;;;1.70;;
56667;SDS011;42542;48.360;10.958;2023-02-18T04:21:35;5.20;;;1.50;;
56667;SDS011;42542;48.360;10.958;2023-02-18T04:24:38;5.20;;;1.60;;
56667;SDS011;42542;48.360;10.958;2023-02-18T04:27:40;4.80;;;1.40;;
56667;SDS011;42542;48.360;10.958;2023-02-18T04:30:42;4.90;;;1.45;;
56667;SDS011;42542;48.360;10.958;2023-02-18T04:33:46;4.95;;;1.60;;
56667;SDS011;42542;48.360;10.958;2023-02-18T04:36:47;4.90;;;1.50;;
56667;SDS011;42542;48.360;10.958;2023-02-18T04:39:49;4.32;;;1.40;;
56667;SDS011;42542;48.360;10.958;2023-02-18T04:42:51;5.53;;;1.60;;
56667;SDS011;42542;48.360;10.958;2023-02-18T04:45:53;4.32;;;1.30;;
56667;SDS011;42542;48.360;10.958;2023-02-18T04:48:55;4.57;;;1.50;;
56667;SDS011;42542;48.360;10.958;2023-02-18T04:51:57;4.30;;;1.30;;
56667;SDS011;42542;48.360;10.958;2023-02-18T04:54:59;4.85;;;1.40;;
56667;SDS011;42542;48.360;10.958;2023-02-18T04:58:01;4.80;;;1.48;;
56667;SDS011;42542;48.360;10.958;2023-02-18T05:01:03;4.97;;;1.50;;
56667;SDS011;42542;48.360;10.958;2023-02-18T05:04:05;4.83;;;1.43;;
56667;SDS011;42542;48.360;10.958;2023-02-18T05:07:07;4.93;;;1.48;;
56667;SDS011;42542;48.360;10.958;2023-02-18T05:10:10;4.38;;;1.30;;
56667;SDS011;42542;48.360;10.958;2023-02-18T05:13:15;4.13;;;1.23;;
56667;SDS011;42542;48.360;10.958;2023-02-18T05:16:17;5.25;;;1.40;;
56667;SDS011;42542;48.360;10.958;2023-02-18T05:19:20;4.93;;;1.33;;
56667;SDS011;42542;48.360;10.958;2023-02-18T05:22:21;5.25;;;1.40;;
56667;SDS011;42542;48.360;10.958;2023-02-18T05:25:24;4.57;;;1.25;;
56667;SDS011;42542;48.360;10.958;2023-02-18T05:28:25;6.13;;;1.48;;
56667;SDS011;42542;48.360;10.958;2023-02-18T05:31:27;4.13;;;1.20;;
56667;SDS011;42542;48.360;10.958;2023-02-18T05:34:29;5.33;;;1.30;;
56667;SDS011;42542;48.360;10.958;2023-02-18T05:37:31;5.03;;;1.40;;
56667;SDS011;42542;48.360;10.958;2023-02-18T05:40:33;4.57;;;1.30;;
56667;SDS011;42542;48.360;10.958;2023-02-18T05:43:35;4.87;;;1.37;;
56667;SDS011;42542;48.360;10.958;2023-02-18T05:46:57;4.07;;;1.13;;
56667;SDS011;42542;48.360;10.958;2023-02-18T05:50:02;5.03;;;1.40;;
56667;SDS011;42542;48.360;10.958;2023-02-18T05:53:04;4.65;;;1.27;;
56667;SDS011;42542;48.360;10.958;2023-02-18T05:56:07;4.30;;;1.30;;
56667;SDS011;42542;48.360;10.958;2023-02-18T05:59:09;4.55;;;1.10;;
56667;SDS011;42542;48.360;10.958;2023-02-18T06:02:11;3.47;;;1.00;;
56667;SDS011;42542;48.360;10.958;2023-02-18T06:05:13;5.23;;;1.10;;
56667;SDS011;42542;48.360;10.958;2023-02-18T06:08:15;3.63;;;1.00;;
56667;SDS011;42542;48.360;10.958;2023-02-18T06:11:17;3.95;;;1.13;;
56667;SDS011;42542;48.360;10.958;2023-02-18T06:14:18;4.23;;;1.20;;
56667;SDS011;42542;48.360;10.958;2023-02-18T06:17:21;3.40;;;1.08;;
56667;SDS011;42542;48.360;10.958;2023-02-18T06:20:22;3.53;;;1.10;;
56667;SDS011;42542;48.360;10.958;2023-02-18T06:23:25;5.35;;;1.13;;
56667;SDS011;42542;48.360;10.958;2023-02-18T06:26:27;3.83;;;1.02;;
56667;SDS011;42542;48.360;10.958;2023-02-18T06:29:29;4.60;;;1.20;;
56667;SDS011;42542;48.360;10.958;2023-02-18T06:32:32;3.95;;;1.10;;
56667;SDS011;42542;48.360;10.958;2023-02-18T06:35:34;4.87;;;1.30;;
56667;SDS011;42542;48.360;10.958;2023-02-18T06:38:37;3.85;;;1.20;;
56667;SDS011;42542;48.360;10.958;2023-02-18T06:41:40;4.70;;;1.30;;
56667;SDS011;42542;48.360;10.958;2023-02-18T06:44:42;4.80;;;1.20;;
56667;SDS011;42542;48.360;10.958;2023-02-18T06:47:44;4.20;;;1.20;;
56667;SDS011;42542;48.360;10.958;2023-02-18T06:50:47;4.60;;;1.30;;
56667;SDS011;42542;48.360;10.958;2023-02-18T06:53:50;5.53;;;1.30;;
56667;SDS011;42542;48.360;10.958;2023-02-18T06:56:52;6.70;;;1.23;;
56667;SDS011;42542;48.360;10.958;2023-02-18T06:59:55;4.63;;;1.30;;
56667;SDS011;42542;48.360;10.958;2023-02-18T07:02:56;5.32;;;1.40;;
56667;SDS011;42542;48.360;10.958;2023-02-18T07:05:59;4.43;;;1.37;;
56667;SDS011;42542;48.360;10.958;2023-02-18T07:09:01;5.38;;;1.83;;
56667;SDS011;42542;48.360;10.958;2023-02-18T07:12:04;4.60;;;1.60;;
56667;SDS011;42542;48.360;10.958;2023-02-18T07:15:06;4.57;;;1.67;;
56667;SDS011;42542;48.360;10.958;2023-02-18T07:18:08;4.60;;;1.38;;
56667;SDS011;42542;48.360;10.958;2023-02-18T07:21:09;5.68;;;1.25;;
56667;SDS011;42542;48.360;10.958;2023-02-18T07:24:11;5.30;;;1.58;;
56667;SDS011;42542;48.360;10.958;2023-02-18T07:27:13;4.95;;;1.40;;
56667;SDS011;42542;48.360;10.958;2023-02-18T07:30:16;4.35;;;1.40;;
56667;SDS011;42542;48.360;10.958;2023-02-18T07:33:20;4.60;;;1.20;;
56667;SDS011;42542;48.360;10.958;2023-02-18T07:36:23;4.87;;;1.30;;
56667;SDS011;42542;48.360;10.958;2023-02-18T07:39:24;5.25;;;1.33;;
56667;SDS011;42542;48.360;10.958;2023-02-18T07:42:27;4.95;;;1.60;;
56667;SDS011;42542;48.360;10.958;2023-02-18T07:45:29;4.53;;;1.30;;
56667;SDS011;42542;48.360;10.958;2023-02-18T07:48:31;3.92;;;1.10;;
56667;SDS011;42542;48.360;10.958;2023-02-18T07:51:33;3.65;;;1.08;;
56667;SDS011;42542;48.360;10.958;2023-02-18T07:54:35;3.75;;;1.08;;
56667;SDS011;42542;48.360;10.958;2023-02-18T07:57:37;5.50;;;1.55;;
56667;SDS011;42542;48.360;10.958;2023-02-18T08:00:58;5.45;;;1.80;;
56667;SDS011;42542;48.360;10.958;2023-02-18T08:04:00;5.25;;;1.77;;
56667;SDS011;42542;48.360;10.958;2023-02-18T08:07:02;5.00;;;1.67;;
56667;SDS011;42542;48.360;10.958;2023-02-18T08:10:04;5.72;;;1.65;;
56667;SDS011;42542;48.360;10.958;2023-02-18T08:13:06;5.10;;;1.40;;
56667;SDS011;42542;48.360;10.958;2023-02-18T08:16:08;5.77;;;2.00;;
56667;SDS011;42542;48.360;10.958;2023-02-18T08:19:11;5.25;;;1.90;;
56667;SDS011;42542;48.360;10.958;2023-02-18T08:22:13;4.55;;;1.40;;
56667;SDS011;42542;48.360;10.958;2023-02-18T08:25:16;4.60;;;1.40;;
56667;SDS011;42542;48.360;10.958;2023-02-18T08:28:30;4.50;;;1.40;;
56667;SDS011;42542;48.360;10.958;2023-02-18T08:31:33;6.75;;;2.20;;
56667;SDS011;42542;48.360;10.958;2023-02-18T08:34:35;5.85;;;1.40;;
56667;SDS011;42542;48.360;10.958;2023-02-18T08:37:37;3.73;;;1.10;;
56667;SDS011;42542;48.360;10.958;2023-02-18T08:41:04;3.78;;;1.08;;
56667;SDS011;42542;48.360;10.958;2023-02-18T08:44:08;4.40;;;1.30;;
56667;SDS011;42542;48.360;10.958;2023-02-18T08:47:10;3.50;;;1.10;;
56667;SDS011;42542;48.360;10.958;2023-02-18T08:50:32;3.70;;;1.00;;
56667;SDS011;42542;48.360;10.958;2023-02-18T08:53:35;3.95;;;1.10;;
56667;SDS011;42542;48.360;10.958;2023-02-18T08:56:37;4.55;;;1.05;;
56667;SDS011;42542;48.360;10.958;2023-02-18T08:59:40;3.67;;;1.00;;
56667;SDS011;42542;48.360;10.958;2023-02-18T09:02:41;3.67;;;1.00;;
56667;SDS011;42542;48.360;10.958;2023-02-18T09:05:44;4.53;;;0.90;;
56667;SDS011;42542;48.360;10.958;2023-02-18T09:08:45;3.07;;;0.90;;
56667;SDS011;42542;48.360;10.958;2023-02-18T09:11:48;2.78;;;0.88;;
56667;SDS011;42542;48.360;10.958;2023-02-18T09:14:50;3.17;;;1.00;;
56667;SDS011;42542;48.360;10.958;2023-02-18T09:17:52;2.90;;;0.80;;
56667;SDS011;42542;48.360;10.958;2023-02-18T09:20:54;3.00;;;0.80;;
56667;SDS011;42542;48.360;10.958;2023-02-18T09:23:58;2.75;;;0.80;;
56667;SDS011;42542;48.360;10.958;2023-02-18T09:27:00;2.95;;;0.80;;
56667;SDS011;42542;48.360;10.958;2023-02-18T09:30:04;4.57;;;1.10;;
56667;SDS011;42542;48.360;10.958;2023-02-18T09:33:06;3.70;;;0.90;;
56667;SDS011;42542;48.360;10.958;2023-02-18T09:36:08;3.55;;;0.90;;
56667;SDS011;42542;48.360;10.958;2023-02-18T09:39:10;3.53;;;0.90;;
56667;SDS011;42542;48.360;10.958;2023-02-18T09:42:14;3.42;;;0.90;;
56667;SDS011;42542;48.360;10.958;2023-02-18T09:45:18;3.97;;;0.90;;
56667;SDS011;42542;48.360;10.958;2023-02-18T09:48:26;4.63;;;1.20;;
56667;SDS011;42542;48.360;10.958;2023-02-18T09:51:32;4.28;;;1.10;;
56667;SDS011;42542;48.360;10.958;2023-02-18T09:54:35;3.67;;;0.98;;
56667;SDS011;42542;48.360;10.958;2023-02-18T10:00:46;5.00;;;1.27;;
56667;SDS011;42542;48.360;10.958;2023-02-18T10:03:52;5.13;;;1.67;;
56667;SDS011;42542;48.360;10.958;2023-02-18T10:06:56;5.13;;;1.50;;
56667;SDS011;42542;48.360;10.958;2023-02-18T10:10:00;3.83;;;1.13;;
56667;SDS011;42542;48.360;10.958;2023-02-18T10:13:19;4.18;;;1.30;;
56667;SDS011;42542;48.360;10.958;2023-02-18T10:16:34;3.42;;;1.00;;
56667;SDS011;42542;48.360;10.958;2023-02-18T10:19:37;5.35;;;1.35;;
56667;SDS011;42542;48.360;10.958;2023-02-18T10:22:43;4.10;;;1.10;;
56667;SDS011;42542;48.360;10.958;2023-02-18T10:25:46;3.38;;;0.90;;
56667;SDS011;42542;48.360;10.958;2023-02-18T10:28:49;2.90;;;0.90;;
56667;SDS011;42542;48.360;10.958;2023-02-18T10:31:58;4.88;;;1.00;;
56667;SDS011;42542;48.360;10.958;2023-02-18T10:35:15;2.20;;;0.73;;
56667;SDS011;42542;48.360;10.958;2023-02-18T10:45:27;3.13;;;0.90;;
56667;SDS011;42542;48.360;10.958;2023-02-18T10:49:03;3.28;;;0.90;;
56667;SDS011;42542;48.360;10.958;2023-02-18T10:52:12;3.60;;;1.10;;
56667;SDS011;42542;48.360;10.958;2023-02-18T10:55:18;4.15;;;1.10;;
56667;SDS011;42542;48.360;10.958;2023-02-18T11:01:42;3.17;;;0.85;;
56667;SDS011;42542;48.360;10.958;2023-02-18T11:04:45;4.70;;;1.27;;
56667;SDS011;42542;48.360;10.958;2023-02-18T11:07:48;5.82;;;1.17;;
56667;SDS011;42542;48.360;10.958;2023-02-18T11:10:52;3.92;;;1.00;;
56667;SDS011;42542;48.360;10.958;2023-02-18T11:13:59;3.22;;;0.98;;
56667;SDS011;42542;48.360;10.958;2023-02-18T11:17:09;3.10;;;0.80;;
56667;SDS011;42542;48.360;10.958;2023-02-18T11:23:44;3.35;;;0.90;;
56667;SDS011;42542;48.360;10.958;2023-02-18T11:26:50;3.42;;;0.90;;
56667;SDS011;42542;48.360;10.958;2023-02-18T11:29:54;3.63;;;1.00;;
56667;SDS011;42542;48.360;10.958;2023-02-18T11:36:35;3.60;;;0.98;;
56667;SDS011;42542;48.360;10.958;2023-02-18T11:39:42;4.57;;;1.00;;
56667;SDS011;42542;48.360;10.958;2023-02-18T11:42:47;3.30;;;0.93;;
56667;SDS011;42542;48.360;10.958;2023-02-18T11:45:48;4.03;;;1.00;;
56667;SDS011;42542;48.360;10.958;2023-02-18T11:49:18;3.60;;;0.90;;
56667;SDS011;42542;48.360;10.958;2023-02-18T11:52:24;3.40;;;1.00;;
56667;SDS011;42542;48.360;10.958;2023-02-18T11:55:29;3.50;;;1.00;;
56667;SDS011;42542;48.360;10.958;2023-02-18T11:58:36;4.35;;;1.35;;
56667;SDS011;42542;48.360;10.958;2023-02-18T12:01:45;5.93;;;1.33;;
56667;SDS011;42542;48.360;10.958;2023-02-18T12:04:52;4.65;;;1.25;;
56667;SDS011;42542;48.360;10.958;2023-02-18T12:08:02;5.10;;;1.05;;
56667;SDS011;42542;48.360;10.958;2023-02-18T12:11:11;4.22;;;1.05;;
56667;SDS011;42542;48.360;10.958;2023-02-18T12:14:20;3.50;;;1.00;;
56667;SDS011;42542;48.360;10.958;2023-02-18T12:24:39;5.25;;;1.23;;
56667;SDS011;42542;48.360;10.958;2023-02-18T12:28:03;3.58;;;1.08;;
56667;SDS011;42542;48.360;10.958;2023-02-18T12:38:41;3.25;;;0.90;;
56667;SDS011;42542;48.360;10.958;2023-02-18T12:41:23;3.47;;;0.93;;
56667;SDS011;42542;48.360;10.958;2023-02-18T12:44:58;4.27;;;1.10;;
56667;SDS011;42542;48.360;10.958;2023-02-18T12:48:17;2.90;;;0.85;;
56667;SDS011;42542;48.360;10.958;2023-02-18T12:58:07;4.63;;;1.00;;
56667;SDS011;42542;48.360;10.958;2023-02-18T13:08:22;3.73;;;0.90;;
56667;SDS011;42542;48.360;10.958;2023-02-18T13:14:42;3.20;;;0.85;;
56667;SDS011;42542;48.360;10.958;2023-02-18T13:17:50;3.95;;;1.02;;
56667;SDS011;42542;48.360;10.958;2023-02-18T13:20:58;3.30;;;0.90;;
56667;SDS011;42542;48.360;10.958;2023-02-18T13:24:08;2.90;;;0.80;;
56667;SDS011;42542;48.360;10.958;2023-02-18T13:27:15;4.55;;;1.10;;
56667;SDS011;42542;48.360;10.958;2023-02-18T13:30:19;3.58;;;1.00;;
56667;SDS011;42542;48.360;10.958;2023-02-18T13:33:26;3.10;;;0.93;;
56667;SDS011;42542;48.360;10.958;2023-02-18T13:36:53;3.40;;;0.90;;
56667;SDS011;42542;48.360;10.958;2023-02-18T13:40:04;3.38;;;1.00;;
56667;SDS011;42542;48.360;10.958;2023-02-18T13:46:28;2.70;;;0.80;;
56667;SDS011;42542;48.360;10.958;2023-02-18T13:49:33;3.63;;;1.00;;
56667;SDS011;42542;48.360;10.958;2023-02-18T13:52:38;4.07;;;1.02;;
56667;SDS011;42542;48.360;10.958;2023-02-18T13:59:35;3.80;;;0.90;;
56667;SDS011;42542;48.360;10.958;2023-02-18T14:02:38;3.13;;;0.85;;
56667;SDS011;42542;48.360;10.958;2023-02-18T14:05:57;3.53;;;0.90;;
56667;SDS011;42542;48.360;10.958;2023-02-18T14:09:03;2.83;;;0.93;;
56667;SDS011;42542;48.360;10.958;2023-02-18T14:12:36;5.00;;;0.87;;
56667;SDS011;42542;48.360;10.958;2023-02-18T14:15:54;3.33;;;0.98;;
56667;SDS011;42542;48.360;10.958;2023-02-18T14:18:58;3.50;;;0.80;;
56667;SDS011;42542;48.360;10.958;2023-02-18T14:28:40;4.95;;;1.40;;
56667;SDS011;42542;48.360;10.958;2023-02-18T14:31:59;4.25;;;1.10;;
56667;SDS011;42542;48.360;10.958;2023-02-18T14:52:50;4.20;;;1.27;;
56667;SDS011;42542;48.360;10.958;2023-02-18T14:55:58;7.00;;;1.70;;
56667;SDS011;42542;48.360;10.958;2023-02-18T14:59:03;6.07;;;1.20;;
56667;SDS011;42542;48.360;10.958;2023-02-18T15:02:19;5.30;;;1.35;;
56667;SDS011;42542;48.360;10.958;2023-02-18T15:05:26;4.53;;;1.30;;
56667;SDS011;42542;48.360;10.958;2023-02-18T15:08:35;5.40;;;1.23;;
56667;SDS011;42542;48.360;10.958;2023-02-18T15:11:46;6.38;;;1.50;;
56667;SDS011;42542;48.360;10.958;2023-02-18T15:15:02;4.90;;;1.20;;
56667;SDS011;42542;48.360;10.958;2023-02-18T15:18:09;3.70;;;1.00;;
56667;SDS011;42542;48.360;10.958;2023-02-18T15:21:20;10.27;;;3.75;;
56667;SDS011;42542;48.360;10.958;2023-02-18T15:24:34;10.13;;;3.78;;
56667;SDS011;42542;48.360;10.958;2023-02-18T15:27:39;7.22;;;2.33;;
56667;SDS011;42542;48.360;10.958;2023-02-18T15:30:46;5.33;;;1.60;;
56667;SDS011;42542;48.360;10.958;2023-02-18T15:33:47;5.88;;;1.85;;
56667;SDS011;42542;48.360;10.958;2023-02-18T15:36:49;6.15;;;2.08;;
56667;SDS011;42542;48.360;10.958;2023-02-18T15:39:52;5.00;;;1.38;;
56667;SDS011;42542;48.360;10.958;2023-02-18T15:42:55;5.90;;;1.70;;
56667;SDS011;42542;48.360;10.958;2023-02-18T15:46:00;6.65;;;1.88;;
56667;SDS011;42542;48.360;10.958;2023-02-18T15:49:05;5.50;;;1.70;;
56667;SDS011;42542;48.360;10.958;2023-02-18T15:52:07;6.93;;;2.38;;
56667;SDS011;42542;48.360;10.958;2023-02-18T15:55:13;9.13;;;3.40;;
56667;SDS011;42542;48.360;10.958;2023-02-18T15:58:28;14.95;;;5.03;;
56667;SDS011;42542;48.360;10.958;2023-02-18T16:01:31;6.83;;;2.90;;
56667;SDS011;42542;48.360;10.958;2023-02-18T16:04:35;12.20;;;3.97;;
56667;SDS011;42542;48.360;10.958;2023-02-18T16:07:50;8.20;;;3.58;;
56667;SDS011;42542;48.360;10.958;2023-02-18T16:10:54;6.72;;;2.63;;
56667;SDS011;42542;48.360;10.958;2023-02-18T16:14:03;4.88;;;1.60;;
56667;SDS011;42542;48.360;10.958;2023-02-18T16:20:21;6.13;;;2.08;;
56667;SDS011;42542;48.360;10.958;2023-02-18T16:24:19;5.97;;;2.07;;
56667;SDS011;42542;48.360;10.958;2023-02-18T16:26:59;4.43;;;1.45;;
56667;SDS011;42542;48.360;10.958;2023-02-18T16:30:05;4.88;;;1.20;;
56667;SDS011;42542;48.360;10.958;2023-02-18T16:33:17;6.22;;;1.13;;
56667;SDS011;42542;48.360;10.958;2023-02-18T16:36:18;4.60;;;1.30;;
56667;SDS011;42542;48.360;10.958;2023-02-18T16:39:23;5.15;;;1.50;;
56667;SDS011;42542;48.360;10.958;2023-02-18T16:42:25;3.83;;;1.15;;
56667;SDS011;42542;48.360;10.958;2023-02-18T16:46:11;4.88;;;1.30;;
56667;SDS011;42542;48.360;10.958;2023-02-18T16:48:53;6.10;;;1.40;;
56667;SDS011;42542;48.360;10.958;2023-02-18T16:51:56;5.43;;;1.50;;
56667;SDS011;42542;48.360;10.958;2023-02-18T16:55:00;5.32;;;1.50;;
56667;SDS011;42542;48.360;10.958;2023-02-18T16:58:01;8.82;;;1.90;;
56667;SDS011;42542;48.360;10.958;2023-02-18T17:01:03;5.27;;;1.50;;
56667;SDS011;42542;48.360;10.958;2023-02-18T17:04:05;4.40;;;1.40;;
56667;SDS011;42542;48.360;10.958;2023-02-18T17:07:10;4.82;;;1.60;;
56667;SDS011;42542;48.360;10.958;2023-02-18T17:10:12;4.20;;;1.20;;
56667;SDS011;42542;48.360;10.958;2023-02-18T17:13:16;6.07;;;2.13;;
56667;SDS011;42542;48.360;10.958;2023-02-18T17:16:21;5.65;;;1.50;;
56667;SDS011;42542;48.360;10.958;2023-02-18T17:19:26;5.68;;;1.80;;
56667;SDS011;42542;48.360;10.958;2023-02-18T17:22:28;5.00;;;1.85;;
56667;SDS011;42542;48.360;10.958;2023-02-18T17:25:36;4.53;;;1.50;;
56667;SDS011;42542;48.360;10.958;2023-02-18T17:28:39;5.53;;;1.60;;
56667;SDS011;42542;48.360;10.958;2023-02-18T17:31:42;4.45;;;1.40;;
56667;SDS011;42542;48.360;10.958;2023-02-18T17:34:47;5.23;;;1.67;;
56667;SDS011;42542;48.360;10.958;2023-02-18T17:37:49;5.18;;;1.60;;
56667;SDS011;42542;48.360;10.958;2023-02-18T17:40:50;5.40;;;1.45;;
56667;SDS011;42542;48.360;10.958;2023-02-18T17:43:52;5.68;;;1.80;;
56667;SDS011;42542;48.360;10.958;2023-02-18T17:46:53;6.03;;;1.77;;
56667;SDS011;42542;48.360;10.958;2023-02-18T17:49:55;8.27;;;2.33;;
56667;SDS011;42542;48.360;10.958;2023-02-18T17:52:57;5.93;;;2.00;;
56667;SDS011;42542;48.360;10.958;2023-02-18T17:55:59;7.77;;;2.60;;
56667;SDS011;42542;48.360;10.958;2023-02-18T17:59:01;12.05;;;4.85;;
56667;SDS011;42542;48.360;10.958;2023-02-18T18:02:02;8.23;;;3.20;;
56667;SDS011;42542;48.360;10.958;2023-02-18T18:05:04;12.57;;;4.80;;
56667;SDS011;42542;48.360;10.958;2023-02-18T18:08:06;13.20;;;6.18;;
56667;SDS011;42542;48.360;10.958;2023-02-18T18:11:10;8.93;;;3.60;;
56667;SDS011;42542;48.360;10.958;2023-02-18T18:14:14;6.75;;;2.70;;
56667;SDS011;42542;48.360;10.958;2023-02-18T18:17:16;5.33;;;1.93;;
56667;SDS011;42542;48.360;10.958;2023-02-18T18:20:18;11.85;;;4.50;;
56667;SDS011;42542;48.360;10.958;2023-02-18T18:23:21;7.70;;;3.03;;
56667;SDS011;42542;48.360;10.958;2023-02-18T18:26:23;7.27;;;2.10;;
56667;SDS011;42542;48.360;10.958;2023-02-18T18:29:25;6.50;;;2.40;;
56667;SDS011;42542;48.360;10.958;2023-02-18T18:32:26;5.82;;;2.10;;
56667;SDS011;42542;48.360;10.958;2023-02-18T18:35:29;6.28;;;2.15;;
56667;SDS011;42542;48.360;10.958;2023-02-18T18:38:32;5.22;;;1.70;;
56667;SDS011;42542;48.360;10.958;2023-02-18T18:41:34;8.30;;;1.98;;
56667;SDS011;42542;48.360;10.958;2023-02-18T18:44:36;6.07;;;1.70;;
56667;SDS011;42542;48.360;10.958;2023-02-18T18:47:37;10.03;;;3.80;;
56667;SDS011;42542;48.360;10.958;2023-02-18T18:50:39;6.57;;;2.20;;
56667;SDS011;42542;48.360;10.958;2023-02-18T18:53:42;5.68;;;2.10;;
56667;SDS011;42542;48.360;10.958;2023-02-18T18:56:44;5.95;;;1.90;;
56667;SDS011;42542;48.360;10.958;2023-02-18T18:59:45;9.55;;;3.85;;
56667;SDS011;42542;48.360;10.958;2023-02-18T19:02:56;7.88;;;3.05;;
56667;SDS011;42542;48.360;10.958;2023-02-18T19:05:58;11.63;;;5.20;;
56667;SDS011;42542;48.360;10.958;2023-02-18T19:09:00;6.43;;;2.40;;
56667;SDS011;42542;48.360;10.958;2023-02-18T19:12:03;6.93;;;2.70;;
56667;SDS011;42542;48.360;10.958;2023-02-18T19:15:05;6.18;;;2.13;;
56667;SDS011;42542;48.360;10.958;2023-02-18T19:18:08;5.20;;;1.80;;
56667;SDS011;42542;48.360;10.958;2023-02-18T19:21:13;5.55;;;1.90;;
56667;SDS011;42542;48.360;10.958;2023-02-18T19:24:15;4.93;;;1.60;;
56667;SDS011;42542;48.360;10.958;2023-02-18T19:27:17;5.32;;;1.83;;
56667;SDS011;42542;48.360;10.958;2023-02-18T19:30:20;6.72;;;1.70;;
56667;SDS011;42542;48.360;10.958;2023-02-18T19:33:24;5.18;;;1.83;;
56667;SDS011;42542;48.360;10.958;2023-02-18T19:36:25;5.20;;;1.98;;
56667;SDS011;42542;48.360;10.958;2023-02-18T19:39:27;6.97;;;1.90;;
56667;SDS011;42542;48.360;10.958;2023-02-18T19:42:29;5.72;;;1.90;;
56667;SDS011;42542;48.360;10.958;2023-02-18T19:45:31;6.78;;;2.55;;
56667;SDS011;42542;48.360;10.958;2023-02-18T19:48:33;6.93;;;2.67;;
56667;SDS011;42542;48.360;10.958;2023-02-18T19:51:35;5.93;;;2.10;;
56667;SDS011;42542;48.360;10.958;2023-02-18T19:54:37;8.07;;;2.72;;
56667;SDS011;42542;48.360;10.958;2023-02-18T19:57:38;7.82;;;2.58;;
56667;SDS011;42542;48.360;10.958;2023-02-18T20:00:40;6.37;;;2.20;;
56667;SDS011;42542;48.360;10.958;2023-02-18T20:03:43;8.93;;;3.05;;
56667;SDS011;42542;48.360;10.958;2023-02-18T20:06:45;6.47;;;2.38;;
56667;SDS011;42542;48.360;10.958;2023-02-18T20:09:49;10.53;;;3.90;;
56667;SDS011;42542;48.360;10.958;2023-02-18T20:12:52;8.50;;;3.00;;
56667;SDS011;42542;48.360;10.958;2023-02-18T20:15:54;8.35;;;3.10;;
56667;SDS011;42542;48.360;10.958;2023-02-18T20:18:56;6.93;;;2.50;;
56667;SDS011;42542;48.360;10.958;2023-02-18T20:21:58;7.43;;;2.55;;
56667;SDS011;42542;48.360;10.958;2023-02-18T20:25:00;10.18;;;2.60;;
56667;SDS011;42542;48.360;10.958;2023-02-18T20:28:02;6.38;;;2.22;;
56667;SDS011;42542;48.360;10.958;2023-02-18T20:31:08;6.43;;;2.30;;